Flight Track Log - Related Links

Times and Time Zones

All times are in EDT time to prevent confusion due to time zone crossing. See the N531K flight status page for this flight to view local times or setup timezone preferences in your user account.

Time Position Orientation Groundspeed Altitude Reporting Facility
EDT Latitude Longitude Course Direction KTS MPH feet Rate Location/Type
Sun 01:26:34 PM 40.8833 -74.0500 288° West 160 184 1,600  Level New York TRACON
Sun 01:27:34 PM 40.9000 -74.1167 288° West 265 305 3,200 1,750 Climbing New York TRACON
Sun 01:28:34 PM 40.8500 -74.1333 194° South 227 261 5,100 1,700 Climbing New York TRACON
Sun 01:29:34 PM 40.7833 -74.1500 191° South 233 268 6,600 1,250 Climbing New York TRACON
Sun 01:30:34 PM 40.7167 -74.1833 201° Southwest 257 296 7,600 1,050 Climbing New York TRACON
Sun 01:31:34 PM 40.6500 -74.2500 217° Southwest 265 305 8,700 2,411 Climbing New York TRACON
Sun 01:34:03 PM 40.5186 -74.2572 182° South 204 235 16,000 2,354 Climbing New York Center
Sun 01:35:03 PM 40.4542 -74.2514 176° South 222 255 16,900 500 Climbing New York Center
Sun 01:36:03 PM 40.3956 -74.2592 186° South 233 268 17,000  Climbing New York Center
Sun 01:37:03 PM 40.3158 -74.2714 187° South 258 297 16,900 -50 Descending New York Center
Sun 01:38:03 PM 40.2603 -74.3203 214° Southwest 264 304 16,900 -850 Level New York Center
Sun 01:39:03 PM 40.1803 -74.3461 194° South 264 304 15,200 -1,850 Descending New York Center
Sun 01:40:03 PM 40.1075 -74.3397 176° South 264 304 13,200 -2,250 Descending New York Center
Sun 01:41:03 PM 40.0400 -74.2956 153° Southeast 274 315 10,700 -1,600 Descending New York Center
Sun 01:42:03 PM 39.9789 -74.3194 197° South 251 289 10,000 -202 Descending New York Center
Sun 01:44:01 PM 39.8472 -74.4106 208° Southwest 261 300 10,100 34 Climbing Washington Center
Sun 01:45:01 PM 39.7750 -74.4872 219° Southwest 309 356 10,100 966 Level Washington Center
Sun 01:45:59 PM 39.7072 -74.5800 226° Southwest 343 395 12,000 1,881 Climbing Washington Center
Sun 01:46:59 PM 39.6433 -74.6644 226° Southwest 348 400 13,800 1,700 Climbing Washington Center
Sun 01:47:59 PM 39.5772 -74.7489 225° Southwest 342 394 15,400 1,488 Climbing Washington Center
Sun 01:49:00 PM 39.5153 -74.8331 226° Southwest 330 380 16,800 793 Climbing Washington Center
Sun 01:50:00 PM 39.4450 -74.9250 225° Southwest 337 388 17,000 1,059 Climbing Washington Center
Sun 01:50:59 PM 39.3683 -75.0225 225° Southwest 363 418 18,900 1,500 Climbing Washington Center
Sun 01:52:00 PM 39.2894 -75.1142 222° Southwest 381 438 20,000 1,537 Climbing Washington Center
Sun 01:53:00 PM 39.1856 -75.1606 199° South 386 444 22,000 2,231 Climbing Washington Center
Sun 01:54:01 PM 39.0856 -75.2039 199° South 386 444 24,500 2,420 Climbing Washington Center
Sun 01:54:59 PM 38.9878 -75.2444 198° South 381 438 26,800 2,269 Climbing Washington Center
Sun 01:56:00 PM 38.8942 -75.2850 199° South 369 425 29,000 2,016 Climbing Washington Center
Sun 01:57:01 PM 38.8003 -75.3225 197° South 364 419 30,900 1,785 Climbing Washington Center
Sun 01:58:01 PM 38.7067 -75.3603 197° South 364 419 32,600 1,261 Climbing Washington Center
Sun 01:59:00 PM 38.6128 -75.3978 197° South 364 419 33,400 655 Climbing Washington Center
Sun 02:00:00 PM 38.5169 -75.4431 200° South 364 419 33,900 397 Climbing Washington Center
Sun 02:01:01 PM 38.4108 -75.4858 198° South 382 440 34,200 700 Climbing Washington Center
Sun 02:02:00 PM 38.3294 -75.5203 198° South 388 447 35,300 1,059 Climbing Washington Center
Sun 02:03:00 PM 38.2106 -75.5839 203° Southwest 388 447 36,300 950 Climbing Washington Center
Sun 02:04:00 PM 38.1106 -75.6286 199° South 388 447 37,200 793 Climbing Washington Center
Sun 02:05:01 PM 38.0147 -75.6761 201° Southwest 388 447 37,900 353 Climbing Washington Center
Sun 02:05:59 PM 37.9167 -75.7208 200° South 382 440 37,900  Level Washington Center
Sun 02:07:00 PM 37.8103 -75.7678 199° South 393 452 37,900  Level Washington Center
Sun 02:08:00 PM 37.7017 -75.8150 199° South 405 466 37,900  Level Washington Center
Sun 02:09:01 PM 37.5908 -75.8644 199° South 417 480 37,900  Level Washington Center
Sun 02:10:01 PM 37.4803 -75.9164 200° South 422 486 37,900  Level Washington Center
Sun 02:10:59 PM 37.3675 -75.9656 199° South 428 493 37,900  Level Washington Center
Sun 02:11:59 PM 37.2547 -76.0172 200° South 428 493 37,900  Level Washington Center
Sun 02:13:00 PM 37.1397 -76.0661 199° South 428 493 37,900  Level Washington Center
Sun 02:14:00 PM 37.0289 -76.1175 200° South 428 493 37,900  Level Washington Center
Sun 02:14:59 PM 36.9119 -76.1608 197° South 433 498 37,900  Level Washington Center
Sun 02:15:59 PM 36.8011 -76.2092 199° South 433 498 37,900  Level Washington Center
Sun 02:17:00 PM 36.6883 -76.2628 201° Southwest 433 498 37,900  Level Washington Center
Sun 02:18:01 PM 36.5794 -76.3111 200° South 427 491 37,900  Level Washington Center
Sun 02:19:01 PM 36.4686 -76.3564 198° South 427 491 37,900  Level Washington Center
Sun 02:19:59 PM 36.3578 -76.4044 199° South 427 491 37,900  Level Washington Center
Sun 02:20:59 PM 36.2469 -76.4522 199° South 427 491 37,900  Level Washington Center
Sun 02:21:59 PM 36.1381 -76.4947 197° South 427 491 37,900  Level Washington Center
Sun 02:23:01 PM 36.0375 -76.5425 201° Southwest 427 491 37,900  Level Washington Center
Sun 02:24:01 PM 35.9244 -76.5872 198° South 427 491 37,900  Level Washington Center
Sun 02:24:59 PM 35.8136 -76.6344 199° South 427 491 37,900  Level Washington Center
Sun 02:26:00 PM 35.7047 -76.6792 198° South 427 491 37,900  Level Washington Center
Sun 02:27:01 PM 35.5978 -76.7261 200° South 422 486 37,900  Level Washington Center
Sun 02:28:01 PM 35.4889 -76.7706 198° South 422 486 37,900  Level Washington Center
Sun 02:28:59 PM 35.3842 -76.8150 199° South 417 480 37,900  Level Washington Center
Sun 02:29:59 PM 35.2731 -76.8617 199° South 417 480 37,900  Level Washington Center
Sun 02:30:59 PM 35.1639 -76.9056 198° South 417 480 37,900  Level Washington Center
Sun 02:32:00 PM 35.0467 -76.9569 200° South 417 480 37,900  Level Washington Center
Sun 02:33:01 PM 34.9356 -77.0033 199° South 417 480 37,900  Level Washington Center
Sun 02:33:59 PM 34.8264 -77.0469 198° South 417 480 37,900  Level Washington Center
Sun 02:35:00 PM 34.7153 -77.0931 199° South 417 480 37,900  Level Washington Center
Sun 02:36:00 PM 34.6061 -77.1389 199° South 417 480 37,900  Level Washington Center
Sun 02:37:01 PM 34.4972 -77.1847 199° South 417 480 37,900  Level Washington Center
Sun 02:38:01 PM 34.3881 -77.2278 198° South 417 480 37,900  Level Washington Center
Sun 02:39:01 PM 34.2914 -77.2686 199° South 412 474 37,900  Level Washington Center
Sun 02:40:01 PM 34.1825 -77.3117 198° South 412 474 37,900  Level Washington Center
Sun 02:41:59 PM 33.9608 -77.3994 198° South 433 498 37,900  Level Jacksonville Center
Sun 02:42:59 PM 33.8483 -77.4467 199° South 433 498 37,900  Level Jacksonville Center
Sun 02:43:59 PM 33.7394 -77.4883 198° South 433 498 37,900  Level Jacksonville Center
Sun 02:44:59 PM 33.6286 -77.5350 199° South 433 498 37,900  Level Jacksonville Center
Sun 02:45:59 PM 33.5200 -77.5789 199° South 427 491 37,900  Level Jacksonville Center
Sun 02:46:59 PM 33.4092 -77.6228 198° South 422 486 37,900  Level Jacksonville Center
Sun 02:47:59 PM 33.3006 -77.6667 199° South 417 480 37,900  Level Jacksonville Center
Sun 02:48:59 PM 33.1917 -77.7103 199° South 417 480 37,900  Level Jacksonville Center
Sun 02:49:59 PM 33.0828 -77.7511 197° South 423 487 37,900  Level Jacksonville Center
Sun 02:50:59 PM 32.9719 -77.7972 199° South 423 487 37,900  Level Jacksonville Center
Sun 02:51:59 PM 32.8608 -77.8406 198° South 423 487 37,900  Level Jacksonville Center
Sun 02:52:59 PM 32.7519 -77.8811 197° South 418 481 37,900  Level Jacksonville Center
Sun 02:53:59 PM 32.6431 -77.9267 199° South 418 481 37,900  Level Jacksonville Center
Sun 02:54:59 PM 32.5342 -77.9697 198° South 418 481 37,900  Level Jacksonville Center
Sun 02:55:59 PM 32.4253 -78.0125 198° South 418 481 37,900  Level Jacksonville Center
Sun 02:56:59 PM 32.3161 -78.0478 195° South 418 481 37,900  Level Jacksonville Center
Sun 02:57:59 PM 32.2111 -78.0925 200° South 418 481 37,900  Level Jacksonville Center
Sun 02:58:59 PM 32.1022 -78.1350 198° South 418 481 37,900  Level Jacksonville Center
Sun 02:59:59 PM 31.9953 -78.1750 198° South 418 481 37,900  Level Jacksonville Center
Sun 03:00:59 PM 31.8903 -78.2194 200° South 413 475 37,900  Level Jacksonville Center
Sun 03:01:59 PM 31.7731 -78.2669 199° South 413 475 37,900  Level Jacksonville Center
Sun 03:02:59 PM 31.6661 -78.3064 197° South 401 461 37,900  Level Jacksonville Center
Sun 03:03:59 PM 31.5611 -78.3458 198° South 396 456 37,900  Level Jacksonville Center
Sun 03:04:59 PM 31.4519 -78.3875 198° South 401 461 37,900  Level Jacksonville Center
Sun 03:05:59 PM 31.3489 -78.4267 198° South 401 461 37,900  Level Jacksonville Center
Sun 03:06:59 PM 31.2378 -78.4708 199° South 396 456 37,900  Level Jacksonville Center
Sun 03:07:59 PM 31.1286 -78.5122 198° South 411 473 37,900  Level Jacksonville Center
Sun 03:08:59 PM 31.0253 -78.5486 197° South 400 460 37,900  Level Jacksonville Center
Sun 03:09:59 PM 30.9161 -78.5922 199° South 406 467 37,900  Level Jacksonville Center
Sun 03:10:59 PM 30.8028 -78.6336 197° South 406 467 37,900  Level Jacksonville Center
Sun 03:11:59 PM 30.6997 -78.6722 198° South 419 482 37,900  Level Jacksonville Center
Sun 03:13:26 PM 30.5369 -78.7314 197° South 424 488 37,900  Level Miami Center
Sun 03:14:26 PM 30.4322 -78.7703 198° South 419 482 37,900  Level Miami Center
Sun 03:15:26 PM 30.3211 -78.8092 197° South 425 489 37,900  Level Miami Center
Sun 03:16:26 PM 30.2103 -78.8481 197° South 425 489 37,900 -150 Level Miami Center
Sun 03:17:26 PM 30.1033 -78.8867 197° South 425 489 37,600 -750 Descending Miami Center
Sun 03:18:26 PM 29.9964 -78.9325 200° South 419 482 36,400 -850 Descending Miami Center
Sun 03:19:26 PM 29.8833 -78.9664 195° South 419 482 35,900 -200 Descending Miami Center
Sun 03:20:26 PM 29.7783 -79.0050 198° South 419 482 36,000  Climbing Miami Center
Sun 03:21:26 PM 29.6656 -79.0289 190° South 413 475 35,900  Descending Miami Center
Sun 03:22:26 PM 29.5483 -79.0433 186° South 419 482 36,000 50 Climbing Miami Center
Sun 03:23:26 PM 29.4314 -79.0647 189° South 419 482 36,000  Level Miami Center
Sun 03:24:26 PM 29.3122 -79.0861 189° South 431 496 36,000  Level Miami Center
Sun 03:25:26 PM 29.1992 -79.1100 190° South 426 490 36,000 -550 Level Miami Center
Sun 03:26:26 PM 29.0819 -79.1292 188° South 426 490 34,900 -1,500 Descending Miami Center
Sun 03:27:26 PM 28.9731 -79.1481 189° South 414 476 33,000 -1,900 Descending Miami Center
Sun 03:28:26 PM 28.8686 -79.1672 189° South 399 459 31,100 -1,800 Descending Miami Center
Sun 03:29:26 PM 28.7556 -79.1864 188° South 399 459 29,400 -1,750 Descending Miami Center
Sun 03:30:26 PM 28.6383 -79.2075 189° South 413 475 27,600 -1,700 Descending Miami Center
Sun 03:31:26 PM 28.5169 -79.2286 189° South 426 490 26,000 -1,400 Descending Miami Center
Sun 03:32:26 PM 28.4039 -79.2522 190° South 432 497 24,800 -1,300 Descending Miami Center
Sun 03:33:26 PM 28.2867 -79.2708 188° South 427 491 23,400 -1,800 Descending Miami Center
Sun 03:34:26 PM 28.1756 -79.2944 191° South 427 491 21,200 -2,150 Descending Miami Center
Sun 03:35:26 PM 28.0850 -79.3442 206° Southwest 396 456 19,100 -2,000 Descending Miami Center
Sun 03:36:26 PM 28.0028 -79.3919 207° Southwest 346 398 17,200 -1,800 Descending Miami Center
Sun 03:37:26 PM 27.9164 -79.4392 206° Southwest 351 404 15,500 -1,450 Descending Miami Center
Sun 03:38:26 PM 27.8297 -79.4914 208° Southwest 351 404 14,300 -1,200 Descending Miami Center
Sun 03:39:26 PM 27.7411 -79.5433 207° Southwest 356 410 13,100 -650 Descending Miami Center
Sun 03:40:26 PM 27.6461 -79.5950 206° Southwest 370 426 13,000 -50 Descending Miami Center
Sun 03:41:26 PM 27.5639 -79.6422 207° Southwest 369 425 13,000 -500 Level Miami Center
Sun 03:42:26 PM 27.4689 -79.6936 206° Southwest 363 418 12,000 -1,400 Descending Miami Center
Sun 03:43:26 PM 27.3803 -79.7453 207° Southwest 363 418 10,200 -1,700 Descending Miami Center
Sun 03:44:26 PM 27.2872 -79.7944 205° Southwest 363 418 8,600 -1,100 Descending Miami Center
Sun 03:45:26 PM 27.2114 -79.8369 206° Southwest 339 390 8,000 -300 Descending Miami Center
Sun 03:46:26 PM 27.1500 -79.8725 207° Southwest 296 341 8,000 -1,000 Level Miami Center
Sun 03:47:26 PM 27.0581 -79.8725 180° South 290 334 6,000 -1,850 Descending Miami Center
Sun 03:48:26 PM 26.9725 -79.8703 179° South 309 356 4,300 -1,050 Descending Miami Center
Sun 03:49:26 PM 26.8947 -79.8939 195° South 298 343 3,900 -650 Descending Miami Center
Sun 03:50:26 PM 26.8442 -79.9206 205° Southwest 251 289 3,000 -1,050 Descending Miami Center
Sun 03:51:26 PM 26.7786 -79.9514 203° Southwest 239 275 1,800 -700 Descending Miami Center
Sun 03:52:26 PM 26.7239 -79.9781 204° Southwest 234 269 1,600 -200 Descending Miami Center
Sun 03:55:00 PM 26.6832 -80.0956 217° Southwest  Level Estimated
Sun 04:02:00 PM 26.6832 -80.0956 110° East  Level Estimated
Sun 04:03:00 PM 26.6832 -80.0956 110° East  Level Estimated
Sun 04:04:00 PM 26.6832 -80.0956 110° East  Level Estimated
Sun 04:05:00 PM 26.6832 -80.0956 110° East  Level Estimated

Login

Don't have an account? Register now (free) for customized features, flight alerts, and more!